createdAt,value
2023-02-22T00:02:48.619Z,6.63
2023-02-22T00:08:11.568Z,6.18
2023-02-22T00:13:33.375Z,5.43
2023-02-22T00:18:55.292Z,5.93
2023-02-22T00:24:25.678Z,5.75
2023-02-22T00:29:47.581Z,4.90
2023-02-22T00:35:09.302Z,7.00
2023-02-22T00:40:33.570Z,5.55
2023-02-22T00:45:55.300Z,4.90
2023-02-22T00:51:17.283Z,6.80
2023-02-22T00:56:39.189Z,5.70
2023-02-22T01:02:00.917Z,7.28
2023-02-22T01:07:23.009Z,5.20
2023-02-22T01:12:44.851Z,5.82
2023-02-22T01:18:07.103Z,4.75
2023-02-22T01:23:28.870Z,4.82
2023-02-22T01:28:50.549Z,4.75
2023-02-22T01:34:13.136Z,5.13
2023-02-22T01:39:35.272Z,4.68
2023-02-22T01:45:31.193Z,4.95
2023-02-22T01:51:00.088Z,4.00
2023-02-22T01:56:25.382Z,4.43
2023-02-22T02:01:47.169Z,5.07
2023-02-22T02:07:13.302Z,4.28
2023-02-22T02:12:36.400Z,4.25
2023-02-22T02:18:09.760Z,3.85
2023-02-22T02:24:02.503Z,4.38
2023-02-22T02:29:53.328Z,4.35
2023-02-22T02:35:26.572Z,4.72
2023-02-22T02:41:33.931Z,5.10
2023-02-22T02:47:09.358Z,3.35
2023-02-22T02:52:34.671Z,4.20
2023-02-22T02:57:56.450Z,4.00
2023-02-22T03:03:27.112Z,5.25
2023-02-22T03:09:03.914Z,4.72
2023-02-22T03:14:37.928Z,3.88
2023-02-22T03:20:12.882Z,4.05
2023-02-22T03:25:40.270Z,4.15
2023-02-22T03:31:07.888Z,2.75
2023-02-22T03:36:34.147Z,3.47
2023-02-22T03:41:57.863Z,5.22
2023-02-22T03:47:28.486Z,2.97
2023-02-22T03:52:50.279Z,3.40
2023-02-22T03:58:14.019Z,3.47
2023-02-22T04:03:35.807Z,3.50
2023-02-22T04:08:57.627Z,2.85
2023-02-22T04:14:19.271Z,2.58
2023-02-22T04:19:41.184Z,3.15
2023-02-22T04:25:02.938Z,2.72
2023-02-22T04:30:24.784Z,2.58
2023-02-22T04:35:46.642Z,2.72
2023-02-22T04:41:08.374Z,2.22
2023-02-22T04:46:31.650Z,3.03
2023-02-22T04:51:53.488Z,2.10
2023-02-22T04:57:15.216Z,2.00
2023-02-22T05:02:40.347Z,2.33
2023-02-22T05:08:02.422Z,2.65
2023-02-22T05:13:24.244Z,2.00
2023-02-22T05:18:45.951Z,1.80
2023-02-22T05:24:08.012Z,1.75
2023-02-22T05:29:29.710Z,1.80
2023-02-22T05:34:51.406Z,1.67
2023-02-22T05:40:14.673Z,1.58
2023-02-22T05:45:36.477Z,1.27
2023-02-22T05:50:58.461Z,2.75
2023-02-22T05:56:25.253Z,1.55
2023-02-22T06:01:47.293Z,1.60
2023-02-22T06:07:09.122Z,1.40
2023-02-22T06:12:30.866Z,1.58
2023-02-22T06:17:53.877Z,1.08
2023-02-22T06:23:15.601Z,1.23
2023-02-22T06:28:37.358Z,1.17
2023-02-22T06:33:59.083Z,1.00
2023-02-22T06:39:20.896Z,1.02
2023-02-22T06:44:42.577Z,1.17
2023-02-22T06:50:04.325Z,3.72
2023-02-22T06:55:29.077Z,5.63
2023-02-22T07:00:50.786Z,4.27
2023-02-22T07:06:12.638Z,8.20
2023-02-22T07:11:34.324Z,9.30
2023-02-22T07:16:56.048Z,4.97
2023-02-22T07:22:17.882Z,12.27
2023-02-22T07:27:41.697Z,7.65
2023-02-22T07:33:06.380Z,12.75
2023-02-22T07:38:28.965Z,8.77
2023-02-22T07:43:50.637Z,10.18
2023-02-22T07:49:12.714Z,6.38
2023-02-22T07:54:34.424Z,4.63
2023-02-22T07:59:56.165Z,7.97
2023-02-22T08:05:19.373Z,4.03
2023-02-22T08:10:41.089Z,5.65
2023-02-22T08:16:03.726Z,6.22
2023-02-22T08:21:25.385Z,5.30
2023-02-22T08:26:47.849Z,6.47
2023-02-22T08:32:09.686Z,3.22
2023-02-22T08:37:31.535Z,3.72
2023-02-22T08:42:53.581Z,3.85
2023-02-22T08:48:15.932Z,6.05
2023-02-22T08:53:38.024Z,4.10
2023-02-22T08:58:59.746Z,1.30
2023-02-22T09:04:21.476Z,3.70
2023-02-22T09:09:44.100Z,3.05
2023-02-22T09:15:05.968Z,2.25
2023-02-22T09:20:28.533Z,0.93
2023-02-22T09:25:50.913Z,2.20
2023-02-22T09:31:12.860Z,1.95
2023-02-22T09:36:34.606Z,2.53
2023-02-22T09:42:20.920Z,4.00
2023-02-22T09:47:49.486Z,3.08
2023-02-22T09:53:36.397Z,8.00
2023-02-22T09:59:04.208Z,5.38
2023-02-22T10:05:05.927Z,6.13
2023-02-22T10:10:35.759Z,6.00
2023-02-22T10:16:06.609Z,7.45
2023-02-22T10:21:28.290Z,10.10
2023-02-22T10:26:50.411Z,13.18
2023-02-22T10:32:25.629Z,14.00
2023-02-22T10:37:49.003Z,10.03
2023-02-22T10:43:14.116Z,5.60
2023-02-22T10:48:40.790Z,19.33
2023-02-22T10:54:33.701Z,8.55
2023-02-22T10:59:57.732Z,12.98
2023-02-22T11:05:36.993Z,7.15
2023-02-22T11:11:03.542Z,8.20
2023-02-22T11:16:41.012Z,7.68
2023-02-22T11:22:05.465Z,7.03
2023-02-22T11:27:40.872Z,6.15
2023-02-22T11:33:23.958Z,7.43
2023-02-22T11:38:56.348Z,5.20
2023-02-22T11:44:32.889Z,6.88
2023-02-22T11:49:55.616Z,9.90
2023-02-22T11:55:41.102Z,3.50
2023-02-22T12:01:22.211Z,4.47
2023-02-22T12:07:30.605Z,5.28
2023-02-22T12:13:27.298Z,3.30
2023-02-22T12:19:00.852Z,8.45
2023-02-22T12:24:29.641Z,6.85
2023-02-22T12:30:07.208Z,3.83
2023-02-22T12:35:37.032Z,5.55
2023-02-22T12:41:25.230Z,3.35
2023-02-22T12:46:51.057Z,4.75
2023-02-22T12:52:31.137Z,4.93
2023-02-22T12:58:04.501Z,2.83
2023-02-22T13:03:35.142Z,5.65
2023-02-22T13:09:05.701Z,5.68
2023-02-22T13:14:36.202Z,4.43
2023-02-22T13:19:58.218Z,4.15
2023-02-22T13:25:32.395Z,4.53
2023-02-22T13:31:23.169Z,4.32
2023-02-22T13:36:53.591Z,6.80
2023-02-22T13:42:43.870Z,7.18
2023-02-22T13:48:28.353Z,5.70
2023-02-22T13:54:08.226Z,6.07
2023-02-22T13:59:29.877Z,6.40
2023-02-22T14:04:51.568Z,4.85
2023-02-22T14:10:38.015Z,7.03
2023-02-22T14:16:05.582Z,5.30
2023-02-22T14:21:27.413Z,4.40
2023-02-22T14:27:05.368Z,5.13
2023-02-22T14:32:35.392Z,5.55
2023-02-22T14:37:59.767Z,4.72
2023-02-22T14:43:24.073Z,5.50
2023-02-22T14:48:47.967Z,14.32
2023-02-22T14:54:29.104Z,6.35
2023-02-22T15:00:30.786Z,6.38
2023-02-22T15:05:52.616Z,6.88
2023-02-22T15:11:26.592Z,6.38
2023-02-22T15:16:52.147Z,5.82
2023-02-22T15:27:47.623Z,7.85
2023-02-22T15:33:17.390Z,10.05
2023-02-22T15:38:39.395Z,15.60
2023-02-22T15:44:23.242Z,9.60
2023-02-22T15:49:46.546Z,15.80
2023-02-22T15:55:11.179Z,11.25
2023-02-22T16:00:36.677Z,9.77
2023-02-22T16:11:32.077Z,6.60
2023-02-22T16:17:35.783Z,10.48
2023-02-22T16:22:58.524Z,8.13
2023-02-22T16:28:35.754Z,8.07
2023-02-22T16:33:57.823Z,8.85
2023-02-22T16:39:27.399Z,15.07
2023-02-22T16:44:49.158Z,12.38
2023-02-22T16:50:11.847Z,8.55
2023-02-22T16:55:36.744Z,10.85
2023-02-22T17:00:58.698Z,7.67
2023-02-22T17:06:21.224Z,7.60
2023-02-22T17:11:43.917Z,9.20
2023-02-22T17:17:05.840Z,9.23
2023-02-22T17:22:27.527Z,10.23
2023-02-22T17:27:49.253Z,10.25
2023-02-22T17:33:16.089Z,9.73
2023-02-22T17:38:41.692Z,10.45
2023-02-22T17:44:03.796Z,8.13
2023-02-22T17:49:25.511Z,8.02
2023-02-22T17:54:47.192Z,9.20
2023-02-22T18:00:12.697Z,9.52
2023-02-22T18:11:05.392Z,12.37
2023-02-22T18:16:27.841Z,8.40
2023-02-22T18:21:49.880Z,11.32
2023-02-22T18:27:12.088Z,22.42
2023-02-22T18:32:33.808Z,19.10
2023-02-22T18:37:55.568Z,16.25
2023-02-22T18:43:17.869Z,8.85
2023-02-22T18:48:40.578Z,13.10
2023-02-22T18:54:02.527Z,15.70
2023-02-22T18:59:24.408Z,21.70
2023-02-22T19:04:47.300Z,16.10
2023-02-22T19:10:09.128Z,18.88
2023-02-22T19:15:30.802Z,13.68
2023-02-22T19:20:57.245Z,19.08
2023-02-22T19:26:24.435Z,20.17
2023-02-22T19:31:49.975Z,18.67
2023-02-22T19:37:13.278Z,11.13
2023-02-22T19:42:35.125Z,12.68
2023-02-22T19:47:56.887Z,9.20
2023-02-22T19:53:18.554Z,13.05
2023-02-22T19:58:43.693Z,7.40
2023-02-22T20:04:11.604Z,9.15
2023-02-22T20:09:39.417Z,14.75
2023-02-22T20:15:01.182Z,10.18
2023-02-22T20:20:24.345Z,10.52
2023-02-22T20:25:56.355Z,9.10
2023-02-22T20:31:19.213Z,10.35
2023-02-22T20:36:41.976Z,7.55
2023-02-22T20:42:05.225Z,9.27
2023-02-22T20:47:26.892Z,8.35
2023-02-22T20:52:48.730Z,11.20
2023-02-22T20:58:10.466Z,11.93
2023-02-22T21:03:36.113Z,9.90
2023-02-22T21:09:00.066Z,7.70
2023-02-22T21:14:23.974Z,8.00
2023-02-22T21:19:45.694Z,7.95
2023-02-22T21:25:07.666Z,6.78
2023-02-22T21:30:29.340Z,5.68
2023-02-22T21:35:52.002Z,7.15
2023-02-22T21:41:15.575Z,7.20
2023-02-22T21:46:37.515Z,6.78
2023-02-22T21:51:59.188Z,4.20
2023-02-22T21:57:20.914Z,3.78
2023-02-22T22:02:46.219Z,4.43
2023-02-22T22:08:07.968Z,3.65
2023-02-22T22:13:29.695Z,4.15
2023-02-22T22:18:51.837Z,3.50
2023-02-22T22:24:13.608Z,4.45
2023-02-22T22:29:35.548Z,4.15
2023-02-22T22:34:59.416Z,6.40
2023-02-22T22:40:21.083Z,4.30
2023-02-22T22:45:43.743Z,3.92
2023-02-22T22:51:09.959Z,3.83
2023-02-22T22:56:35.376Z,3.28
2023-02-22T23:07:18.886Z,4.13
2023-02-22T23:12:40.566Z,5.28
2023-02-22T23:18:03.978Z,2.72
2023-02-22T23:23:27.852Z,2.90
2023-02-22T23:28:49.717Z,3.00
2023-02-22T23:34:11.403Z,3.97
2023-02-22T23:39:33.336Z,1.80
2023-02-22T23:44:55.318Z,2.63
2023-02-22T23:50:19.417Z,2.38
2023-02-22T23:55:44.132Z,2.67
